Terminal Aerodrome Forecast
Issued by NWS Sioux Falls, SD

Home | Current Version | Previous Version | Text Only | Print | Product List | Glossary On
Versions: 1 2 3 4 5 6 7 8 9 10 11 12 13 14 15 16
000
FTUS43 KFSD 121000 AAB
TAFHON
TAF AMD
KHON 121024Z 1210/1306 05006KT 6SM SHRA BKN010
      TEMPO 1210/1213 3SM TSRA SCT009 OVC025CB
     FM121300 03006KT 6SM SHRA OVC025
     FM121600 07005KT P6SM BKN050
      TEMPO 1219/1222 -SHRA
     FM130000 24005KT P6SM SCT060=

USA.gov is the U.S. government's official web portal to all federal, state and local government web resources and services.